Nashville, Arkansas
Current Conditions -  °F | °C
As of 10:53 PM on Wednesday 22 Oct 2014 (Local Time) from KDEQ Reporting Station
Clear Clear  
Wind Chill: 54°   Ceiling: Unl
Heat Index: 54°   Visibility: 10mi
Dew Point: 53°   Wind: 3mph
Humidity: 97%   Direction: 60°ENE
Pressure: 30.15"   Gusts: NA
Location:  33.95°N, 93.85°W
Report Text: KDEQ 230353Z AUTO 06003KT 10SM CLR 12/12 A3015 RMK AO2 SLP208 T01220117
Loading
Personal Weather Stations






























Interactive Weather Map
Tropical Storm Tracking
New forecast layout! Learn more

10-Day Weather Forecast

Advertisements
Track Severe Weather on mobile